createdAt,value
2019-03-30T00:00:22.353Z,8.38
2019-03-30T00:01:27.414Z,8.38
2019-03-30T00:02:30.860Z,8.21
2019-03-30T00:03:34.291Z,8.15
2019-03-30T00:04:37.720Z,8.02
2019-03-30T00:05:41.285Z,8.03
2019-03-30T00:06:44.802Z,7.98
2019-03-30T00:07:48.258Z,7.78
2019-03-30T00:08:51.690Z,7.75
2019-03-30T00:09:55.112Z,7.64
2019-03-30T00:10:58.558Z,7.77
2019-03-30T00:12:01.983Z,7.90
2019-03-30T00:13:05.719Z,7.93
2019-03-30T00:14:09.221Z,7.94
2019-03-30T00:15:12.727Z,7.90
2019-03-30T00:16:16.221Z,7.86
2019-03-30T00:17:19.651Z,7.84
2019-03-30T00:18:23.098Z,7.76
2019-03-30T00:19:34.691Z,7.69
2019-03-30T00:20:31.682Z,7.74
2019-03-30T00:21:35.114Z,7.81
2019-03-30T00:22:38.544Z,7.83
2019-03-30T00:23:41.992Z,7.84
2019-03-30T00:24:45.448Z,7.78
2019-03-30T00:25:49.018Z,7.76
2019-03-30T00:26:52.456Z,7.80
2019-03-30T00:27:55.887Z,7.81
2019-03-30T00:28:59.342Z,7.81
2019-03-30T00:30:02.969Z,7.82
2019-03-30T00:31:06.471Z,7.81
2019-03-30T00:32:09.926Z,7.80
2019-03-30T00:33:13.351Z,7.78
2019-03-30T00:34:16.797Z,7.67
2019-03-30T00:35:20.241Z,7.62
2019-03-30T00:36:23.740Z,7.62
2019-03-30T00:37:27.170Z,7.58
2019-03-30T00:38:30.599Z,7.48
2019-03-30T00:39:34.201Z,7.56
2019-03-30T00:40:37.657Z,7.61
2019-03-30T00:41:41.159Z,7.72
2019-03-30T00:42:44.685Z,7.62
2019-03-30T00:43:48.190Z,7.62
2019-03-30T00:44:51.658Z,7.52
2019-03-30T00:45:55.110Z,7.52
2019-03-30T00:46:58.611Z,7.44
2019-03-30T00:48:02.051Z,7.45
2019-03-30T00:49:05.567Z,7.52
2019-03-30T00:50:09.125Z,7.48
2019-03-30T00:51:12.549Z,7.37
2019-03-30T00:52:16.040Z,7.15
2019-03-30T00:53:19.475Z,7.13
2019-03-30T00:54:22.919Z,7.26
2019-03-30T00:55:26.445Z,7.36
2019-03-30T00:56:29.958Z,7.34
2019-03-30T00:57:33.386Z,7.32
2019-03-30T00:58:36.849Z,7.26
2019-03-30T00:59:40.278Z,7.26
2019-03-30T01:00:43.797Z,7.30
2019-03-30T01:01:47.320Z,7.25
2019-03-30T01:02:50.756Z,7.24
2019-03-30T01:03:54.186Z,7.34
2019-03-30T01:04:57.690Z,7.37
2019-03-30T01:06:01.286Z,7.40
2019-03-30T01:07:04.880Z,7.40
2019-03-30T01:08:08.579Z,7.36
2019-03-30T01:09:12.098Z,7.37
2019-03-30T01:10:15.680Z,7.36
2019-03-30T01:11:19.568Z,7.36
2019-03-30T01:12:23.021Z,7.32
2019-03-30T01:13:26.465Z,7.24
2019-03-30T01:14:29.917Z,7.07
2019-03-30T01:15:33.328Z,7.11
2019-03-30T01:16:36.849Z,7.21
2019-03-30T01:17:40.279Z,6.98
2019-03-30T01:18:43.708Z,6.80
2019-03-30T01:19:47.247Z,6.84
2019-03-30T01:20:50.720Z,6.84
2019-03-30T01:21:56.215Z,6.77
2019-03-30T01:22:59.379Z,6.83
2019-03-30T01:24:02.809Z,6.89
2019-03-30T01:25:10.038Z,6.96
2019-03-30T01:26:13.487Z,6.90
2019-03-30T01:27:16.937Z,6.69
2019-03-30T01:28:20.374Z,6.62
2019-03-30T01:29:23.813Z,6.56
2019-03-30T01:30:27.245Z,6.59
2019-03-30T01:31:30.683Z,6.68
2019-03-30T01:32:35.150Z,6.89
2019-03-30T01:33:38.726Z,7.04
2019-03-30T01:34:42.216Z,7.04
2019-03-30T01:35:45.596Z,7.10
2019-03-30T01:36:49.170Z,6.98
2019-03-30T01:37:52.618Z,7.01
2019-03-30T01:38:56.051Z,7.07
2019-03-30T01:39:59.487Z,7.10
2019-03-30T01:41:02.983Z,7.14
2019-03-30T01:42:06.421Z,7.21
2019-03-30T01:43:09.868Z,7.11
2019-03-30T01:44:13.299Z,6.97
2019-03-30T01:45:16.727Z,6.97
2019-03-30T01:46:20.157Z,6.98
2019-03-30T01:47:23.590Z,6.84
2019-03-30T01:48:27.043Z,6.65
2019-03-30T01:49:30.492Z,6.57
2019-03-30T01:50:33.926Z,6.67
2019-03-30T01:51:37.366Z,6.77
2019-03-30T01:52:40.802Z,6.74
2019-03-30T01:53:44.325Z,6.59
2019-03-30T01:54:47.770Z,6.59
2019-03-30T01:55:51.199Z,6.51
2019-03-30T01:56:54.695Z,6.40
2019-03-30T01:57:58.129Z,6.46
2019-03-30T01:59:01.646Z,6.55
2019-03-30T02:00:10.086Z,6.54
2019-03-30T02:01:13.596Z,6.66
2019-03-30T02:02:17.103Z,6.62
2019-03-30T02:03:20.535Z,6.62
2019-03-30T02:04:24.234Z,6.51
2019-03-30T02:05:27.738Z,6.55
2019-03-30T02:06:31.188Z,6.57
2019-03-30T02:07:34.679Z,6.60
2019-03-30T02:08:38.110Z,6.62
2019-03-30T02:09:41.560Z,6.61
2019-03-30T02:10:45.964Z,6.62
2019-03-30T02:11:49.470Z,6.62
2019-03-30T02:12:52.901Z,6.58
2019-03-30T02:13:56.332Z,6.57
2019-03-30T02:14:59.803Z,6.58
2019-03-30T02:16:03.317Z,6.61
2019-03-30T02:17:06.733Z,6.50
2019-03-30T02:18:10.233Z,6.46
2019-03-30T02:19:13.798Z,6.57
2019-03-30T02:20:30.556Z,6.74
2019-03-30T02:21:28.283Z,6.72
2019-03-30T02:22:31.790Z,6.60
2019-03-30T02:23:35.316Z,6.60
2019-03-30T02:24:38.847Z,6.55
2019-03-30T02:25:42.524Z,6.40
2019-03-30T02:26:45.971Z,6.24
2019-03-30T02:27:49.448Z,6.28
2019-03-30T02:28:52.895Z,6.28
2019-03-30T02:29:56.277Z,6.35
2019-03-30T02:30:59.771Z,6.50
2019-03-30T02:32:03.515Z,6.40
2019-03-30T02:33:07.091Z,6.24
2019-03-30T02:34:10.535Z,6.29
2019-03-30T02:35:14.053Z,6.33
2019-03-30T02:36:17.647Z,6.34
2019-03-30T02:37:21.110Z,6.33
2019-03-30T02:38:24.553Z,6.54
2019-03-30T02:39:28.050Z,6.48
2019-03-30T02:40:31.480Z,6.41
2019-03-30T02:41:34.949Z,6.32
2019-03-30T02:42:38.431Z,6.23
2019-03-30T02:43:41.983Z,5.96
2019-03-30T02:44:45.413Z,5.76
2019-03-30T02:45:48.923Z,5.76
2019-03-30T02:46:52.363Z,5.68
2019-03-30T02:47:55.869Z,5.74
2019-03-30T02:48:59.367Z,5.98
2019-03-30T02:50:02.884Z,5.96
2019-03-30T02:51:06.320Z,5.98
2019-03-30T02:52:09.852Z,5.82
2019-03-30T02:53:13.298Z,5.74
2019-03-30T02:54:16.763Z,5.79
2019-03-30T02:55:20.270Z,5.78
2019-03-30T02:56:23.700Z,5.69
2019-03-30T02:57:27.322Z,5.71
2019-03-30T02:58:30.811Z,5.68
2019-03-30T02:59:34.235Z,5.72
2019-03-30T03:00:37.956Z,5.73
2019-03-30T03:01:41.481Z,5.67
2019-03-30T03:02:44.926Z,5.57
2019-03-30T03:03:48.363Z,5.46
2019-03-30T03:04:51.800Z,5.38
2019-03-30T03:05:55.237Z,5.43
2019-03-30T03:06:58.667Z,5.51
2019-03-30T03:08:02.113Z,5.59
2019-03-30T03:09:08.167Z,5.51
2019-03-30T03:10:12.047Z,5.58
2019-03-30T03:11:15.599Z,5.62
2019-03-30T03:12:18.991Z,5.59
2019-03-30T03:13:22.515Z,5.75
2019-03-30T03:14:25.991Z,6.05
2019-03-30T03:15:29.394Z,6.18
2019-03-30T03:16:32.896Z,6.05
2019-03-30T03:17:36.314Z,6.04
2019-03-30T03:18:39.764Z,6.20
2019-03-30T03:19:43.230Z,6.28
2019-03-30T03:20:46.741Z,6.39
2019-03-30T03:21:50.164Z,6.18
2019-03-30T03:22:53.665Z,6.03
2019-03-30T03:23:57.130Z,5.85
2019-03-30T03:25:00.647Z,5.85
2019-03-30T03:26:04.089Z,5.95
2019-03-30T03:27:07.513Z,5.95
2019-03-30T03:28:10.939Z,6.02
2019-03-30T03:29:14.403Z,6.01
2019-03-30T03:30:18.073Z,5.99
2019-03-30T03:31:21.501Z,5.98
2019-03-30T03:32:25.195Z,6.00
2019-03-30T03:33:28.685Z,6.12
2019-03-30T03:34:32.189Z,6.26
2019-03-30T03:35:35.680Z,6.31
2019-03-30T03:36:39.106Z,6.23
2019-03-30T03:37:46.227Z,6.23
2019-03-30T03:38:47.746Z,6.10
2019-03-30T03:39:51.260Z,5.99
2019-03-30T03:40:54.696Z,6.07
2019-03-30T03:41:58.134Z,6.14
2019-03-30T03:43:01.563Z,6.05
2019-03-30T03:44:05.203Z,5.81
2019-03-30T03:45:08.775Z,5.81
2019-03-30T03:46:12.175Z,5.86
2019-03-30T03:47:15.672Z,5.92
2019-03-30T03:48:19.112Z,6.07
2019-03-30T03:49:22.571Z,6.25
2019-03-30T03:50:29.047Z,6.16
2019-03-30T03:51:33.317Z,5.94
2019-03-30T03:52:37.072Z,5.70
2019-03-30T03:53:40.865Z,5.56
2019-03-30T03:54:44.660Z,5.58
2019-03-30T03:55:48.360Z,5.60
2019-03-30T03:56:52.732Z,5.74
2019-03-30T03:57:56.375Z,5.75
2019-03-30T03:59:01.584Z,5.66
2019-03-30T04:00:06.622Z,5.61
2019-03-30T04:01:10.740Z,5.59
2019-03-30T04:02:16.766Z,5.54
2019-03-30T04:03:21.557Z,5.20
2019-03-30T04:04:27.346Z,5.44
2019-03-30T04:05:31.835Z,5.46
2019-03-30T04:06:36.883Z,5.33
2019-03-30T04:07:41.897Z,5.36
2019-03-30T04:08:47.781Z,5.50
2019-03-30T04:09:54.415Z,5.55
2019-03-30T04:10:59.593Z,5.43
2019-03-30T04:12:06.092Z,5.26
2019-03-30T04:13:11.194Z,5.22
2019-03-30T04:14:16.190Z,5.23
2019-03-30T04:15:24.462Z,5.28
2019-03-30T04:16:28.039Z,5.27
2019-03-30T04:17:31.924Z,5.31
2019-03-30T04:18:35.482Z,5.36
2019-03-30T04:19:38.986Z,5.40
2019-03-30T04:20:42.485Z,5.41
2019-03-30T04:21:45.926Z,5.32
2019-03-30T04:22:49.364Z,5.37
2019-03-30T04:23:54.501Z,5.44
2019-03-30T04:24:58.076Z,5.51
2019-03-30T04:26:01.543Z,5.55
2019-03-30T04:27:05.050Z,5.55
2019-03-30T04:28:08.478Z,5.59
2019-03-30T04:29:11.910Z,5.55
2019-03-30T04:30:15.352Z,5.46
2019-03-30T04:31:18.806Z,5.40
2019-03-30T04:32:22.256Z,5.41
2019-03-30T04:33:28.636Z,5.42
2019-03-30T04:34:32.076Z,5.44
2019-03-30T04:35:35.505Z,5.42
2019-03-30T04:36:38.954Z,5.48
2019-03-30T04:37:42.385Z,5.49
2019-03-30T04:38:45.823Z,5.46
2019-03-30T04:39:49.252Z,5.41
2019-03-30T04:40:52.749Z,5.46
2019-03-30T04:41:56.201Z,5.49
2019-03-30T04:42:59.701Z,5.49
2019-03-30T04:44:03.144Z,5.45
2019-03-30T04:45:08.462Z,5.40
2019-03-30T04:46:11.895Z,5.36
2019-03-30T04:47:15.343Z,5.36
2019-03-30T04:48:18.790Z,5.40
2019-03-30T04:49:22.347Z,5.43
2019-03-30T04:50:25.861Z,5.54
2019-03-30T04:51:29.287Z,5.46
2019-03-30T04:52:32.737Z,5.46
2019-03-30T04:53:36.165Z,5.49
2019-03-30T04:54:39.603Z,5.56
2019-03-30T04:55:43.098Z,5.56
2019-03-30T04:56:46.538Z,5.53
2019-03-30T04:57:50.072Z,5.44
2019-03-30T04:58:53.515Z,5.45
2019-03-30T04:59:56.960Z,5.51
2019-03-30T05:01:00.389Z,5.52
2019-03-30T05:02:03.892Z,5.54
2019-03-30T05:03:07.445Z,5.52
2019-03-30T05:04:10.870Z,5.50
2019-03-30T05:05:14.405Z,5.41
2019-03-30T05:06:17.874Z,5.38
2019-03-30T05:07:21.320Z,5.32
2019-03-30T05:08:24.771Z,5.28
2019-03-30T05:09:28.258Z,5.38
2019-03-30T05:10:31.692Z,5.35
2019-03-30T05:11:35.144Z,5.37
2019-03-30T05:12:38.578Z,5.37
2019-03-30T05:13:42.050Z,5.37
2019-03-30T05:14:45.501Z,5.30
2019-03-30T05:15:48.973Z,5.17
2019-03-30T05:16:52.416Z,5.12
2019-03-30T05:17:55.837Z,5.10
2019-03-30T05:18:59.314Z,5.14
2019-03-30T05:20:03.163Z,5.15
2019-03-30T05:21:06.580Z,5.19
2019-03-30T05:22:13.519Z,5.20
2019-03-30T05:23:15.341Z,5.15
2019-03-30T05:24:18.799Z,5.12
2019-03-30T05:25:22.234Z,5.13
2019-03-30T05:26:25.740Z,5.09
2019-03-30T05:27:29.172Z,5.15
2019-03-30T05:28:32.598Z,5.19
2019-03-30T05:29:36.056Z,5.25
2019-03-30T05:30:39.491Z,5.22
2019-03-30T05:31:42.926Z,5.26
2019-03-30T05:32:46.361Z,5.26
2019-03-30T05:33:49.790Z,5.19
2019-03-30T05:34:53.238Z,5.09
2019-03-30T05:35:56.667Z,5.08
2019-03-30T05:37:00.089Z,5.07
2019-03-30T05:38:03.539Z,5.08
2019-03-30T05:39:07.024Z,5.04
2019-03-30T05:40:10.724Z,5.08
2019-03-30T05:41:14.222Z,5.14
2019-03-30T05:42:17.651Z,5.13
2019-03-30T05:43:21.093Z,5.14
2019-03-30T05:44:24.544Z,5.22
2019-03-30T05:45:27.977Z,5.24
2019-03-30T05:46:31.404Z,5.30
2019-03-30T05:47:34.906Z,5.24
2019-03-30T05:48:38.405Z,5.32
2019-03-30T05:49:41.866Z,5.33
2019-03-30T05:50:45.309Z,5.33
2019-03-30T05:51:48.737Z,5.33
2019-03-30T05:52:52.184Z,5.39
2019-03-30T05:53:55.634Z,5.33
2019-03-30T05:54:59.065Z,5.37
2019-03-30T05:56:02.510Z,5.33
2019-03-30T05:57:05.939Z,5.33
2019-03-30T05:58:09.370Z,5.36
2019-03-30T05:59:12.875Z,5.47
2019-03-30T06:00:18.033Z,5.47
2019-03-30T06:01:21.533Z,5.51
2019-03-30T06:02:24.975Z,5.51
2019-03-30T06:03:28.397Z,5.52
2019-03-30T06:04:31.828Z,5.42
2019-03-30T06:05:35.283Z,5.39
2019-03-30T06:06:38.725Z,5.46
2019-03-30T06:07:42.169Z,5.53
2019-03-30T06:08:45.738Z,5.51
2019-03-30T06:09:49.429Z,5.44
2019-03-30T06:10:52.947Z,5.49
2019-03-30T06:11:56.562Z,5.47
2019-03-30T06:13:00.070Z,5.49
2019-03-30T06:14:03.757Z,5.65
2019-03-30T06:15:08.337Z,5.78
2019-03-30T06:16:11.852Z,5.80
2019-03-30T06:17:15.451Z,5.76
2019-03-30T06:18:18.880Z,5.69
2019-03-30T06:19:22.461Z,5.62
2019-03-30T06:20:25.890Z,5.63
2019-03-30T06:21:29.410Z,5.67
2019-03-30T06:22:40.186Z,5.73
2019-03-30T06:23:44.349Z,5.77
2019-03-30T06:24:47.840Z,5.88
2019-03-30T06:25:51.339Z,5.94
2019-03-30T06:26:54.984Z,5.97
2019-03-30T06:27:58.537Z,6.00
2019-03-30T06:29:02.062Z,6.12
2019-03-30T06:30:22.782Z,6.25
2019-03-30T06:31:26.317Z,6.18
2019-03-30T06:32:29.840Z,6.16
2019-03-30T06:33:33.341Z,6.06
2019-03-30T06:34:36.849Z,6.21
2019-03-30T06:35:40.344Z,6.20
2019-03-30T06:36:43.848Z,6.14
2019-03-30T06:37:47.448Z,6.20
2019-03-30T06:38:50.953Z,6.25
2019-03-30T06:39:54.468Z,6.12
2019-03-30T06:40:57.986Z,6.17
2019-03-30T06:42:01.568Z,6.26
2019-03-30T06:43:07.532Z,6.35
2019-03-30T06:44:10.259Z,6.35
2019-03-30T06:45:14.032Z,6.35
2019-03-30T06:46:17.542Z,6.34
2019-03-30T06:47:21.045Z,6.34
2019-03-30T06:48:24.575Z,6.42
2019-03-30T06:49:28.146Z,6.53
2019-03-30T06:50:31.586Z,6.57
2019-03-30T06:51:35.182Z,6.61
2019-03-30T06:52:42.657Z,6.63
2019-03-30T06:53:43.779Z,6.73
2019-03-30T06:54:47.216Z,6.88
2019-03-30T06:55:50.909Z,6.98
2019-03-30T06:56:54.440Z,6.97
2019-03-30T06:57:57.907Z,6.98
2019-03-30T06:59:01.341Z,6.97
2019-03-30T07:00:06.402Z,6.99
2019-03-30T07:01:09.829Z,6.99
2019-03-30T07:02:13.703Z,7.00
2019-03-30T07:03:17.269Z,7.07
2019-03-30T07:04:20.685Z,7.10
2019-03-30T07:05:24.454Z,7.19
2019-03-30T07:06:29.431Z,7.33
2019-03-30T07:07:33.129Z,7.29
2019-03-30T07:08:37.414Z,7.25
2019-03-30T07:09:41.402Z,7.31
2019-03-30T07:10:45.573Z,7.32
2019-03-30T07:11:51.652Z,7.41
2019-03-30T07:12:55.415Z,7.50
2019-03-30T07:14:01.925Z,7.55
2019-03-30T07:15:05.703Z,7.64
2019-03-30T07:16:09.262Z,7.70
2019-03-30T07:17:13.264Z,7.75
2019-03-30T07:18:17.835Z,7.77
2019-03-30T07:19:22.978Z,7.80
2019-03-30T07:20:28.150Z,7.83
2019-03-30T07:21:31.640Z,7.85
2019-03-30T07:22:35.070Z,7.86
2019-03-30T07:23:38.565Z,7.95
2019-03-30T07:24:42.016Z,7.95
2019-03-30T07:25:45.507Z,8.01
2019-03-30T07:26:48.942Z,8.02
2019-03-30T07:27:52.550Z,8.03
2019-03-30T07:28:56.005Z,8.04
2019-03-30T07:29:59.424Z,8.10
2019-03-30T07:31:02.845Z,8.16
2019-03-30T07:32:06.352Z,8.20
2019-03-30T07:33:09.794Z,8.28
2019-03-30T07:34:13.236Z,8.33
2019-03-30T07:35:16.681Z,8.37
2019-03-30T07:36:20.110Z,8.41
2019-03-30T07:37:23.616Z,8.50
2019-03-30T07:38:27.052Z,8.53
2019-03-30T07:39:30.481Z,8.53
2019-03-30T07:40:34.161Z,8.55
2019-03-30T07:41:37.525Z,8.59
2019-03-30T07:42:40.958Z,8.66
2019-03-30T07:43:44.394Z,8.70
2019-03-30T07:44:47.840Z,8.73
2019-03-30T07:45:51.295Z,8.76
2019-03-30T07:46:54.725Z,8.83
2019-03-30T07:47:58.158Z,8.85
2019-03-30T07:49:01.586Z,8.86
2019-03-30T07:50:08.937Z,8.94
2019-03-30T07:51:12.383Z,8.94
2019-03-30T07:52:15.902Z,8.99
2019-03-30T07:53:26.212Z,8.99
2019-03-30T07:54:24.563Z,9.03
2019-03-30T07:55:27.994Z,9.09
2019-03-30T07:56:31.513Z,9.11
2019-03-30T07:57:34.945Z,9.19
2019-03-30T07:58:38.372Z,9.23
2019-03-30T07:59:41.815Z,9.23
2019-03-30T08:00:45.305Z,9.32
2019-03-30T08:01:48.766Z,9.32
2019-03-30T08:02:52.279Z,9.38
2019-03-30T08:03:55.746Z,9.41
2019-03-30T08:04:59.171Z,9.42
2019-03-30T08:06:02.599Z,9.44
2019-03-30T08:07:06.047Z,9.44
2019-03-30T08:08:09.554Z,9.47
2019-03-30T08:09:13.066Z,9.46
2019-03-30T08:10:16.636Z,9.50
2019-03-30T08:11:20.135Z,9.53
2019-03-30T08:12:23.616Z,9.58
2019-03-30T08:13:27.061Z,9.62
2019-03-30T08:14:30.547Z,9.66
2019-03-30T08:15:33.997Z,9.68
2019-03-30T08:16:37.432Z,9.74
2019-03-30T08:17:40.951Z,9.74
2019-03-30T08:18:44.383Z,9.79
2019-03-30T08:19:50.385Z,9.91
2019-03-30T08:20:53.049Z,9.98
2019-03-30T08:21:56.484Z,10.02
2019-03-30T08:23:00.032Z,10.06
2019-03-30T08:24:03.520Z,10.07
2019-03-30T08:25:07.293Z,10.09
2019-03-30T08:26:10.740Z,10.11
2019-03-30T08:27:14.190Z,10.16
2019-03-30T08:28:17.642Z,10.18
2019-03-30T08:29:21.079Z,10.19
2019-03-30T08:30:24.585Z,10.19
2019-03-30T08:31:28.038Z,10.21
2019-03-30T08:32:31.475Z,10.27
2019-03-30T08:33:34.932Z,10.30
2019-03-30T08:34:38.385Z,10.33
2019-03-30T08:35:41.803Z,10.37
2019-03-30T08:36:45.323Z,10.41
2019-03-30T08:37:48.843Z,10.42
2019-03-30T08:38:52.294Z,10.47
2019-03-30T08:39:55.749Z,10.47
2019-03-30T08:40:59.193Z,10.46
2019-03-30T08:42:02.708Z,10.46
2019-03-30T08:43:06.212Z,10.50
2019-03-30T08:44:09.750Z,10.52
2019-03-30T08:45:13.328Z,10.59
2019-03-30T08:46:16.768Z,10.66
2019-03-30T08:47:20.224Z,10.72
2019-03-30T08:48:23.659Z,10.74
2019-03-30T08:49:27.188Z,10.78
2019-03-30T08:50:30.645Z,10.78
2019-03-30T08:51:34.148Z,10.82
2019-03-30T08:52:37.589Z,10.90
2019-03-30T08:53:53.959Z,10.92
2019-03-30T08:54:46.216Z,10.96
2019-03-30T08:55:49.655Z,11.00
2019-03-30T08:56:53.098Z,11.02
2019-03-30T08:57:56.599Z,11.12
2019-03-30T08:59:00.045Z,11.16
2019-03-30T09:00:04.160Z,11.16
2019-03-30T09:01:07.595Z,11.22
2019-03-30T09:02:11.053Z,11.25
2019-03-30T09:03:14.486Z,11.31
2019-03-30T09:04:17.923Z,11.32
2019-03-30T09:05:21.385Z,11.29
2019-03-30T09:06:24.889Z,11.29
2019-03-30T09:07:28.415Z,11.32
2019-03-30T09:08:32.423Z,11.32
2019-03-30T09:09:35.902Z,11.33
2019-03-30T09:10:39.495Z,11.38
2019-03-30T09:11:43.544Z,11.40
2019-03-30T09:12:47.244Z,11.43
2019-03-30T09:13:50.672Z,11.48
2019-03-30T09:14:54.119Z,11.52
2019-03-30T09:15:57.573Z,11.55
2019-03-30T09:17:01.012Z,11.57
2019-03-30T09:18:04.524Z,11.58
2019-03-30T09:19:07.988Z,11.58
2019-03-30T09:20:11.466Z,11.57
2019-03-30T09:21:14.988Z,11.60
2019-03-30T09:22:18.443Z,11.65
2019-03-30T09:23:21.967Z,11.72
2019-03-30T09:24:25.398Z,11.79
2019-03-30T09:25:28.966Z,11.83
2019-03-30T09:26:32.430Z,11.87
2019-03-30T09:27:35.871Z,11.92
2019-03-30T09:28:39.301Z,11.96
2019-03-30T09:29:42.773Z,11.92
2019-03-30T09:30:46.168Z,11.78
2019-03-30T09:31:49.705Z,11.85
2019-03-30T09:32:53.155Z,11.86
2019-03-30T09:33:56.584Z,11.86
2019-03-30T09:35:00.021Z,11.91
2019-03-30T09:36:03.463Z,11.95
2019-03-30T09:37:06.910Z,12.05
2019-03-30T09:38:10.407Z,12.13
2019-03-30T09:39:13.842Z,12.15
2019-03-30T09:40:17.419Z,12.19
2019-03-30T09:41:20.847Z,12.26
2019-03-30T09:42:24.308Z,12.30
2019-03-30T09:43:27.826Z,12.37
2019-03-30T09:44:31.341Z,12.54
2019-03-30T09:45:34.886Z,12.74
2019-03-30T09:46:38.316Z,12.96
2019-03-30T09:47:41.847Z,13.06
2019-03-30T09:48:45.303Z,13.13
2019-03-30T09:49:48.727Z,13.10
2019-03-30T09:50:52.162Z,12.97
2019-03-30T09:51:55.603Z,12.88
2019-03-30T09:52:59.111Z,12.87
2019-03-30T09:54:02.552Z,12.87
2019-03-30T09:55:07.245Z,12.97
2019-03-30T09:56:10.678Z,12.99
2019-03-30T09:57:14.137Z,13.04
2019-03-30T09:58:17.601Z,13.02
2019-03-30T09:59:21.976Z,13.05
2019-03-30T10:00:25.491Z,12.92
2019-03-30T10:01:28.935Z,12.96
2019-03-30T10:02:32.372Z,13.09
2019-03-30T10:03:35.832Z,13.24
2019-03-30T10:04:39.301Z,13.18
2019-03-30T10:05:42.927Z,13.20
2019-03-30T10:06:46.366Z,13.23
2019-03-30T10:07:49.803Z,13.25
2019-03-30T10:08:53.298Z,13.30
2019-03-30T10:09:56.790Z,13.29
2019-03-30T10:11:00.226Z,13.28
2019-03-30T10:12:03.837Z,13.38
2019-03-30T10:13:07.256Z,13.49
2019-03-30T10:14:10.708Z,13.54
2019-03-30T10:15:14.487Z,13.65
2019-03-30T10:16:17.992Z,13.78
2019-03-30T10:17:21.497Z,13.78
2019-03-30T10:18:24.924Z,13.76
2019-03-30T10:19:28.380Z,13.82
2019-03-30T10:20:31.855Z,13.84
2019-03-30T10:21:35.298Z,13.88
2019-03-30T10:22:42.054Z,14.03
2019-03-30T10:23:43.973Z,13.90
2019-03-30T10:24:47.420Z,13.93
2019-03-30T10:25:50.929Z,14.05
2019-03-30T10:26:54.397Z,14.16
2019-03-30T10:27:57.911Z,14.24
2019-03-30T10:29:01.436Z,14.34
2019-03-30T10:30:07.154Z,14.45
2019-03-30T10:31:10.727Z,14.49
2019-03-30T10:32:14.173Z,14.50
2019-03-30T10:33:17.607Z,14.52
2019-03-30T10:34:21.059Z,14.57
2019-03-30T10:35:24.516Z,14.41
2019-03-30T10:36:27.963Z,14.16
2019-03-30T10:37:31.450Z,14.24
2019-03-30T10:38:34.955Z,14.35
2019-03-30T10:39:38.458Z,14.25
2019-03-30T10:40:41.921Z,14.31
2019-03-30T10:41:45.379Z,14.44
2019-03-30T10:42:48.818Z,14.61
2019-03-30T10:43:52.346Z,14.86
2019-03-30T10:44:55.776Z,15.09
2019-03-30T10:45:59.391Z,15.18
2019-03-30T10:47:02.833Z,15.33
2019-03-30T10:48:06.350Z,15.45
2019-03-30T10:49:09.783Z,15.46
2019-03-30T10:50:13.393Z,15.38
2019-03-30T10:51:16.884Z,15.43
2019-03-30T10:52:20.319Z,15.33
2019-03-30T10:53:23.849Z,15.14
2019-03-30T10:54:27.351Z,15.16
2019-03-30T10:55:30.803Z,15.38
2019-03-30T10:56:34.315Z,15.42
2019-03-30T10:57:37.911Z,15.45
2019-03-30T10:58:41.358Z,15.62
2019-03-30T10:59:44.859Z,15.62
2019-03-30T11:00:48.292Z,15.70
2019-03-30T11:01:51.818Z,15.84
2019-03-30T11:02:55.251Z,16.01
2019-03-30T11:03:58.687Z,16.16
2019-03-30T11:05:02.128Z,16.17
2019-03-30T11:06:05.565Z,16.21
2019-03-30T11:07:09.089Z,16.10
2019-03-30T11:08:12.588Z,16.15
2019-03-30T11:09:16.016Z,16.24
2019-03-30T11:10:19.458Z,16.28
2019-03-30T11:11:22.887Z,16.22
2019-03-30T11:12:26.339Z,16.19
2019-03-30T11:13:29.769Z,16.21
2019-03-30T11:14:33.198Z,16.34
2019-03-30T11:15:36.638Z,16.27
2019-03-30T11:16:40.075Z,16.29
2019-03-30T11:17:43.543Z,16.48
2019-03-30T11:18:46.986Z,16.55
2019-03-30T11:19:50.423Z,16.54
2019-03-30T11:20:53.919Z,16.49
2019-03-30T11:21:57.356Z,16.54
2019-03-30T11:23:00.880Z,16.65
2019-03-30T11:24:06.709Z,16.51
2019-03-30T11:25:09.644Z,16.35
2019-03-30T11:26:13.101Z,16.46
2019-03-30T11:27:16.602Z,16.76
2019-03-30T11:28:20.059Z,17.03
2019-03-30T11:29:23.492Z,16.98
2019-03-30T11:30:26.926Z,16.82
2019-03-30T11:31:30.427Z,16.82
2019-03-30T11:32:33.930Z,16.62
2019-03-30T11:33:37.374Z,16.70
2019-03-30T11:34:40.869Z,16.73
2019-03-30T11:35:44.317Z,16.99
2019-03-30T11:36:47.751Z,17.19
2019-03-30T11:37:51.259Z,17.37
2019-03-30T11:38:54.723Z,17.65
2019-03-30T11:39:58.189Z,17.78
2019-03-30T11:41:01.651Z,17.81
2019-03-30T11:42:05.220Z,17.81
2019-03-30T11:43:08.648Z,17.76
2019-03-30T11:44:12.166Z,17.86
2019-03-30T11:45:15.693Z,18.01
2019-03-30T11:46:19.219Z,18.14
2019-03-30T11:47:22.660Z,18.26
2019-03-30T11:48:26.353Z,18.19
2019-03-30T11:49:29.876Z,18.24
2019-03-30T11:50:33.397Z,18.35
2019-03-30T11:51:36.900Z,18.39
2019-03-30T11:52:40.404Z,18.45
2019-03-30T11:53:43.874Z,18.67
2019-03-30T11:54:47.328Z,18.84
2019-03-30T11:55:50.896Z,18.95
2019-03-30T11:56:54.392Z,18.91
2019-03-30T11:57:57.855Z,18.97
2019-03-30T11:59:01.432Z,19.23
2019-03-30T12:00:06.293Z,19.42
2019-03-30T12:01:09.873Z,19.43
2019-03-30T12:02:26.946Z,19.52
2019-03-30T12:03:18.683Z,19.54
2019-03-30T12:04:22.139Z,19.63
2019-03-30T12:05:25.671Z,19.73
2019-03-30T12:06:29.182Z,19.88
2019-03-30T12:07:32.691Z,19.99
2019-03-30T12:08:36.186Z,19.85
2019-03-30T12:09:39.786Z,19.79
2019-03-30T12:10:43.370Z,19.80
2019-03-30T12:11:46.872Z,20.04
2019-03-30T12:12:50.309Z,19.93
2019-03-30T12:13:54.000Z,19.89
2019-03-30T12:14:57.499Z,20.08
2019-03-30T12:16:01.093Z,20.35
2019-03-30T12:17:04.688Z,20.72
2019-03-30T12:18:08.262Z,20.99
2019-03-30T12:19:11.764Z,21.33
2019-03-30T12:20:15.333Z,21.77
2019-03-30T12:21:18.932Z,22.11
2019-03-30T12:22:22.380Z,22.36
2019-03-30T12:23:25.984Z,22.51
2019-03-30T12:24:29.431Z,22.90
2019-03-30T12:25:35.731Z,22.90
2019-03-30T12:26:38.274Z,22.45
2019-03-30T12:27:41.910Z,22.31
2019-03-30T12:28:45.425Z,22.39
2019-03-30T12:29:48.874Z,22.44
2019-03-30T12:30:52.400Z,22.43
2019-03-30T12:31:55.939Z,22.46
2019-03-30T12:32:59.461Z,22.60
2019-03-30T12:34:02.888Z,22.67
2019-03-30T12:35:08.065Z,23.10
2019-03-30T12:36:11.580Z,23.64
2019-03-30T12:37:15.041Z,23.88
2019-03-30T12:38:18.542Z,24.58
2019-03-30T12:39:22.042Z,24.90
2019-03-30T12:40:25.583Z,25.02
2019-03-30T12:41:29.083Z,25.55
2019-03-30T12:42:32.877Z,26.29
2019-03-30T12:43:38.886Z,26.42
2019-03-30T12:44:41.516Z,26.50
2019-03-30T12:45:45.117Z,26.89
2019-03-30T12:46:48.565Z,27.29
2019-03-30T12:47:52.011Z,27.73
2019-03-30T12:48:55.452Z,27.71
2019-03-30T12:49:58.892Z,28.05
2019-03-30T12:51:02.326Z,28.53
2019-03-30T12:52:05.829Z,29.11
2019-03-30T12:53:09.357Z,29.62
2019-03-30T12:54:12.868Z,30.27
2019-03-30T12:55:16.372Z,31.06
2019-03-30T12:56:19.803Z,31.55
2019-03-30T12:57:23.238Z,30.81
2019-03-30T12:58:26.776Z,30.81
2019-03-30T12:59:30.220Z,31.28
2019-03-30T13:00:33.649Z,31.28
2019-03-30T13:01:37.176Z,31.29
2019-03-30T13:02:40.581Z,31.51
2019-03-30T13:03:44.031Z,31.96
2019-03-30T13:04:47.483Z,31.92
2019-03-30T13:05:50.924Z,32.04
2019-03-30T13:06:54.437Z,32.45
2019-03-30T13:07:57.871Z,32.65
2019-03-30T13:09:01.337Z,32.62
2019-03-30T13:10:07.006Z,33.20
2019-03-30T13:11:10.455Z,33.43
2019-03-30T13:12:13.962Z,33.25
2019-03-30T13:13:17.403Z,33.41
2019-03-30T13:14:20.851Z,33.07
2019-03-30T13:15:24.354Z,33.03
2019-03-30T13:16:27.783Z,33.16
2019-03-30T13:17:31.224Z,33.48
2019-03-30T13:18:34.666Z,33.34
2019-03-30T13:19:38.115Z,33.30
2019-03-30T13:20:41.562Z,33.07
2019-03-30T13:21:52.552Z,33.31
2019-03-30T13:22:50.164Z,33.67
2019-03-30T13:23:53.679Z,33.89
2019-03-30T13:24:57.129Z,33.59
2019-03-30T13:26:03.768Z,33.90
2019-03-30T13:27:05.816Z,33.86
2019-03-30T13:28:09.348Z,33.98
2019-03-30T13:29:12.788Z,34.40
2019-03-30T13:30:16.775Z,34.07
2019-03-30T13:31:20.224Z,33.91
2019-03-30T13:32:23.653Z,34.23
2019-03-30T13:33:30.168Z,34.42
2019-03-30T13:34:33.604Z,34.76
2019-03-30T13:35:37.063Z,34.95
2019-03-30T13:36:41.775Z,35.68
2019-03-30T13:37:45.216Z,35.52
2019-03-30T13:38:48.720Z,35.37
2019-03-30T13:39:52.168Z,36.01
2019-03-30T13:40:55.629Z,36.61
2019-03-30T13:41:59.066Z,37.43
2019-03-30T13:43:02.498Z,37.38
2019-03-30T13:44:06.574Z,36.32
2019-03-30T13:45:10.338Z,33.98
2019-03-30T13:46:13.794Z,33.64
2019-03-30T13:47:17.303Z,34.19
2019-03-30T13:48:20.800Z,34.23
2019-03-30T13:49:24.283Z,34.95
2019-03-30T13:50:30.806Z,35.30
2019-03-30T13:51:33.000Z,35.81
2019-03-30T13:52:36.500Z,35.61
2019-03-30T13:53:40.042Z,35.75
2019-03-30T13:54:43.455Z,34.48
2019-03-30T13:55:47.023Z,33.93